WetterOnline ( https://www.wetteronline.de )

Wetter aktuell Erharting

Aktuelles Wetter: Mühldorf am Inn (410m)

6-stündlich | Neueste Meldungen
Ortszeit Temperatur Wetter
Mo, 06.07. 14:00 19.3° C bewölkt
Mo, 06.07. 8:00 20.8° C wolkenlos
Mo, 06.07. 2:00 15.9° C wolkenlos
So, 05.07. 20:00 25.8° C wolkenlos
So, 05.07. 14:00 25.7° C leicht bewölkt
So, 05.07. 8:00 19.4° C fast wolkenlos
So, 05.07. 2:00 13.2° C leicht bewölkt
Sa, 04.07. 20:00 23.1° C wolkenlos
Ortszeit Temperatur Wetter
Mo, 06.07. 15:30 17.4° C bedeckt
Mo, 06.07. 15:20 17.4° C bedeckt
Mo, 06.07. 15:10 17.8° C bedeckt
Mo, 06.07. 15:00 17.6° C bewölkt
Mo, 06.07. 14:50 17.6° C bewölkt
Mo, 06.07. 14:40 17.9° C bedeckt
Mo, 06.07. 14:30 18.5° C bedeckt
Mo, 06.07. 14:00 19.3° C bewölkt
Mo, 06.07. 13:30 19.4° C bedeckt
Mo, 06.07. 13:00 19.4° C wolkig
Mo, 06.07. 12:30 19.4° C bewölkt
Ortszeit Relative Feuchte Sichtweite
Mo, 06.07. 14:00 59% >70 km
Mo, 06.07. 8:00 75% >70 km
Mo, 06.07. 2:00 96% 55 km
So, 05.07. 20:00 56% 55 km
So, 05.07. 14:00 46% >70 km
So, 05.07. 8:00 71% 50 km
So, 05.07. 2:00 96% 16 km
Sa, 04.07. 20:00 54% 60 km
Ortszeit Relative Feuchte Sichtweite
Mo, 06.07. 15:30 51% >70 km
Mo, 06.07. 15:20 51% -
Mo, 06.07. 15:10 51% -
Mo, 06.07. 15:00 46% >70 km
Mo, 06.07. 14:50 46% -
Mo, 06.07. 14:40 48% -
Mo, 06.07. 14:30 53% 60 km
Mo, 06.07. 14:00 59% >70 km
Mo, 06.07. 13:30 59% 55 km
Mo, 06.07. 13:00 64% 65 km
Mo, 06.07. 12:30 65% >70 km
Ortszeit Niederschlagsmenge Niederschlagsart
Mo, 06.07. 14:00 0.1 l/m2 in 6 Std. Regen
Mo, 06.07. 8:00 0.0 l/m2 in 12 Std. -
Mo, 06.07. 2:00 0.0 l/m2 in 6 Std. -
So, 05.07. 20:00 0.0 l/m2 in 12 Std. -
So, 05.07. 14:00 0.0 l/m2 in 6 Std. -
So, 05.07. 8:00 0.0 l/m2 in 12 Std. -
So, 05.07. 2:00 0.0 l/m2 in 6 Std. -
Sa, 04.07. 20:00 0.0 l/m2 in 12 Std. -
Ortszeit Niederschlagsmenge Niederschlagsart
Mo, 06.07. 15:30 0.0 l/m2 in 1 Std. -
Mo, 06.07. 15:20 keine Meldung -
Mo, 06.07. 15:10 keine Meldung -
Mo, 06.07. 15:00 0.0 l/m2 in 1 Std. -
Mo, 06.07. 14:50 keine Meldung -
Mo, 06.07. 14:40 keine Meldung -
Mo, 06.07. 14:30 0.0 l/m2 in 1 Std. -
Mo, 06.07. 14:00 0.0 l/m2 in 1 Std. Regen
Mo, 06.07. 13:30 0.0 l/m2 in 1 Std. -
Mo, 06.07. 13:00 0.0 l/m2 in 1 Std. -
Mo, 06.07. 12:30 0.0 l/m2 in 1 Std. -
Ortszeit Stärke Spitze Richtung
km/h Bft. km/h Grad Sektor
Mo, 06.07. 14:00 22 4 47 300° NW
Mo, 06.07. 8:00 7 2 11 250° W
Mo, 06.07. 2:00 4 1 14 330° NW
So, 05.07. 20:00 9 2 35 280° W
So, 05.07. 14:00 18 3 36 280° W
So, 05.07. 8:00 0 0 7 - -
So, 05.07. 2:00 0 0 7 - -
Sa, 04.07. 20:00 9 2 22 280° W
Ortszeit Stärke Spitze Richtung
km/h Bft. km/h Grad Sektor
Mo, 06.07. 15:30 20 4 31 280° W
Mo, 06.07. 15:20 20 4 - 280° W
Mo, 06.07. 15:10 18 3 - 280° W
Mo, 06.07. 15:00 20 4 43 270° W
Mo, 06.07. 14:50 20 4 - 270° W
Mo, 06.07. 14:40 25 4 - 280° W
Mo, 06.07. 14:30 26 4 43 310° NW
Mo, 06.07. 14:00 22 4 47 300° NW
Mo, 06.07. 13:30 26 4 44 310° NW
Mo, 06.07. 13:00 31 5 48 300° NW
Mo, 06.07. 12:30 25 4 40 310° NW
Ortszeit Untergrenze Bedeckung Gattung
total tief tief mittel hoch
Mo, 06.07. 14:00 1200 m 7/8 7/8 - - -
Mo, 06.07. 8:00 - 0/8 0/8 - - -
Mo, 06.07. 2:00 - 0/8 0/8 - - -
So, 05.07. 20:00 - 0/8 0/8 - - -
So, 05.07. 14:00 2400 m 3/8 3/8 - - -
So, 05.07. 8:00 1800 m 1/8 1/8 - - -
So, 05.07. 2:00 1500 m 2/8 2/8 - - -
Sa, 04.07. 20:00 - 0/8 0/8 - - -
Ortszeit Bedeckungsgrad in Achtel und Wolkenuntergrenze
Mo, 06.07. 15:30 8(1500m)
Mo, 06.07. 15:20 8(1500m)
Mo, 06.07. 15:10 8(1500m) 8(1800m)
Mo, 06.07. 15:00 7(1440m)
Mo, 06.07. 14:50 7(1440m)
Mo, 06.07. 14:40 7(1380m) 8(1500m)
Mo, 06.07. 14:30 8(1320m) 8(1500m)
Mo, 06.07. 14:00 7(1200m) 7(1470m) 7(3300m)
Mo, 06.07. 13:30 1(780m) 8(1020m)
Mo, 06.07. 13:00 1(780m) 5(1170m) 7(3000m)
Mo, 06.07. 12:30 7(2700m) 7(2700m)
Ortszeit Luftdruck NN (hPa) Tendenz (hPa in 3 Std.)
Mo, 06.07. 14:00 1015 + 1,0
Mo, 06.07. 8:00 1012 - 1,0
Mo, 06.07. 2:00 1015 - 0,1
So, 05.07. 20:00 1013 - 0,9
So, 05.07. 14:00 1016 - 1,5
So, 05.07. 8:00 1019 - 0,1
So, 05.07. 2:00 1020 + 0,3
Sa, 04.07. 20:00 1017 - 0,6
Ortszeit Luftdruck NN (hPa) Tendenz (hPa in 3 Std.)
Mo, 06.07. 15:30 1015 + 0,5
Mo, 06.07. 15:20 1015 keine Meldung
Mo, 06.07. 15:10 1015 keine Meldung
Mo, 06.07. 15:00 1015 + 0,4
Mo, 06.07. 14:50 1015 keine Meldung
Mo, 06.07. 14:40 1015 keine Meldung
Mo, 06.07. 14:30 1015 + 0,7
Mo, 06.07. 14:00 1015 + 1,0
Mo, 06.07. 13:30 1015 + 1,1
Mo, 06.07. 13:00 1015 + 1,5
Mo, 06.07. 12:30 1015 + 1,5
Ortszeit Schneehöhe (cm)
Mo, 06.07. 14:00 -
Mo, 06.07. 8:00 -
Mo, 06.07. 2:00 -
So, 05.07. 20:00 -
So, 05.07. 14:00 -
So, 05.07. 8:00 -
So, 05.07. 2:00 -
Sa, 04.07. 20:00 -
Ortszeit Schneehöhe (cm)
Mo, 06.07. 15:30 -
Mo, 06.07. 15:20 -
Mo, 06.07. 15:10 -
Mo, 06.07. 15:00 -
Mo, 06.07. 14:50 -
Mo, 06.07. 14:40 -
Mo, 06.07. 14:30 -
Mo, 06.07. 14:00 -
Mo, 06.07. 13:30 -
Mo, 06.07. 13:00 -
Mo, 06.07. 12:30 -
Link zu dieser Seite / Seite empfehlen

Das Wetter in ...